createdAt,value
2024-03-13T00:01:07.980Z,10.00
2024-03-13T00:03:37.446Z,10.00
2024-03-13T00:06:05.175Z,10.00
2024-03-13T00:08:32.237Z,10.00
2024-03-13T00:10:59.328Z,9.90
2024-03-13T00:13:27.530Z,9.80
2024-03-13T00:15:54.345Z,9.80
2024-03-13T00:18:21.770Z,9.70
2024-03-13T00:20:48.617Z,9.70
2024-03-13T00:23:16.495Z,9.70
2024-03-13T00:25:44.620Z,9.70
2024-03-13T00:28:11.556Z,9.70
2024-03-13T00:30:38.777Z,9.60
2024-03-13T00:33:05.846Z,9.60
2024-03-13T00:35:32.839Z,9.60
2024-03-13T00:38:00.961Z,9.50
2024-03-13T00:40:27.889Z,9.50
2024-03-13T00:42:55.840Z,9.50
2024-03-13T00:45:23.316Z,9.50
2024-03-13T00:47:50.173Z,9.50
2024-03-13T00:50:17.293Z,9.40
2024-03-13T00:52:44.522Z,9.30
2024-03-13T00:55:12.285Z,9.30
2024-03-13T00:57:44.192Z,9.30
2024-03-13T01:00:13.205Z,9.20
2024-03-13T01:02:43.205Z,9.20
2024-03-13T01:05:11.092Z,9.20
2024-03-13T01:07:38.040Z,9.20
2024-03-13T01:10:05.436Z,9.20
2024-03-13T01:12:33.033Z,9.10
2024-03-13T01:15:00.540Z,9.10
2024-03-13T01:17:27.781Z,9.10
2024-03-13T01:19:54.671Z,9.10
2024-03-13T01:22:23.786Z,9.10
2024-03-13T01:24:50.706Z,9.10
2024-03-13T01:27:18.512Z,9.10
2024-03-13T01:29:47.542Z,9.10
2024-03-13T01:32:16.394Z,9.10
2024-03-13T01:34:43.200Z,9.10
2024-03-13T01:37:28.827Z,9.10
2024-03-13T01:39:55.740Z,9.10
2024-03-13T01:42:41.395Z,9.10
2024-03-13T01:45:28.827Z,9.10
2024-03-13T01:48:15.881Z,9.10
2024-03-13T01:51:02.932Z,9.10
2024-03-13T01:53:49.307Z,9.00
2024-03-13T01:56:28.863Z,9.00
2024-03-13T01:59:22.097Z,9.00
2024-03-13T02:02:08.434Z,9.00
2024-03-13T02:04:36.406Z,9.00
2024-03-13T02:07:04.746Z,9.00
2024-03-13T02:09:31.996Z,9.00
2024-03-13T02:11:58.907Z,9.00
2024-03-13T02:14:25.702Z,9.00
2024-03-13T02:16:53.816Z,9.00
2024-03-13T02:19:21.626Z,9.00
2024-03-13T02:21:49.182Z,9.00
2024-03-13T02:24:16.180Z,9.00
2024-03-13T02:26:43.000Z,9.00
2024-03-13T02:29:10.275Z,9.00
2024-03-13T02:31:37.119Z,9.00
2024-03-13T02:34:05.984Z,9.00
2024-03-13T02:36:32.907Z,9.00
2024-03-13T02:39:00.734Z,9.00
2024-03-13T02:41:27.728Z,9.00
2024-03-13T02:43:58.639Z,9.00
2024-03-13T02:46:26.115Z,9.00
2024-03-13T02:48:53.913Z,9.00
2024-03-13T02:51:21.440Z,8.90
2024-03-13T02:53:49.648Z,8.90
2024-03-13T02:56:16.743Z,8.90
2024-03-13T02:58:46.047Z,9.00
2024-03-13T03:01:13.550Z,9.00
2024-03-13T03:03:40.933Z,9.00
2024-03-13T03:06:08.247Z,9.00
2024-03-13T03:08:38.531Z,9.00
2024-03-13T03:11:05.418Z,9.00
2024-03-13T03:13:32.457Z,9.00
2024-03-13T03:16:00.969Z,9.00
2024-03-13T03:18:28.776Z,9.00
2024-03-13T03:20:55.526Z,9.00
2024-03-13T03:23:22.708Z,9.00
2024-03-13T03:25:49.513Z,9.00
2024-03-13T03:28:17.917Z,8.90
2024-03-13T03:30:47.987Z,8.90
2024-03-13T03:33:15.201Z,9.00
2024-03-13T03:35:42.443Z,9.00
2024-03-13T03:38:09.237Z,9.00
2024-03-13T03:40:36.707Z,9.00
2024-03-13T03:43:05.068Z,8.90
2024-03-13T03:45:31.950Z,8.90
2024-03-13T03:48:04.831Z,8.90
2024-03-13T03:50:38.408Z,8.90
2024-03-13T03:53:05.293Z,8.90
2024-03-13T03:55:32.073Z,8.80
2024-03-13T03:57:58.989Z,8.90
2024-03-13T04:00:25.786Z,8.90
2024-03-13T04:02:53.016Z,8.80
2024-03-13T04:05:21.322Z,8.90
2024-03-13T04:07:52.654Z,8.80
2024-03-13T04:10:21.405Z,8.80
2024-03-13T04:12:50.472Z,8.80
2024-03-13T04:15:22.620Z,8.70
2024-03-13T04:17:52.358Z,8.70
2024-03-13T04:20:22.041Z,8.70
2024-03-13T04:22:49.129Z,8.70
2024-03-13T04:25:16.117Z,8.70
2024-03-13T04:27:43.164Z,8.70
2024-03-13T04:30:10.172Z,8.70
2024-03-13T04:32:37.182Z,8.80
2024-03-13T04:35:04.921Z,8.70
2024-03-13T04:37:32.634Z,8.70
2024-03-13T04:40:01.224Z,8.80
2024-03-13T04:42:28.871Z,8.70
2024-03-13T04:44:57.266Z,8.70
2024-03-13T04:47:24.539Z,8.80
2024-03-13T04:49:51.756Z,8.80
2024-03-13T04:52:19.380Z,8.80
2024-03-13T04:54:46.280Z,8.80
2024-03-13T04:57:13.202Z,8.80
2024-03-13T04:59:40.118Z,8.80
2024-03-13T05:02:07.227Z,8.80
2024-03-13T05:04:37.750Z,8.80
2024-03-13T05:07:04.739Z,8.80
2024-03-13T05:09:31.557Z,8.80
2024-03-13T05:11:58.614Z,8.80
2024-03-13T05:14:25.668Z,8.80
2024-03-13T05:16:52.658Z,8.80
2024-03-13T05:19:20.378Z,8.80
2024-03-13T05:21:47.332Z,8.80
2024-03-13T05:24:16.970Z,8.80
2024-03-13T05:26:44.085Z,8.70
2024-03-13T05:29:11.300Z,8.70
2024-03-13T05:31:38.178Z,8.80
2024-03-13T05:34:06.199Z,8.70
2024-03-13T05:36:33.645Z,8.80
2024-03-13T05:39:00.725Z,8.80
2024-03-13T05:41:27.531Z,8.80
2024-03-13T05:43:54.516Z,8.80
2024-03-13T05:46:23.922Z,8.80
2024-03-13T05:48:51.091Z,8.80
2024-03-13T05:51:18.102Z,8.80
2024-03-13T05:53:45.952Z,8.80
2024-03-13T05:56:12.812Z,8.90
2024-03-13T05:58:42.552Z,8.90
2024-03-13T06:01:16.294Z,8.90
2024-03-13T06:03:43.295Z,8.80
2024-03-13T06:06:12.818Z,8.80
2024-03-13T06:08:39.709Z,8.90
2024-03-13T06:11:06.786Z,8.90
2024-03-13T06:13:33.868Z,8.90
2024-03-13T06:16:01.402Z,8.90
2024-03-13T06:18:28.346Z,8.90
2024-03-13T06:20:55.137Z,8.90
2024-03-13T06:23:21.950Z,8.90
2024-03-13T06:25:50.115Z,8.90
2024-03-13T06:28:35.540Z,8.90
2024-03-13T06:31:03.637Z,8.90
2024-03-13T06:33:32.351Z,8.90
2024-03-13T06:35:59.167Z,8.90
2024-03-13T06:38:25.987Z,8.90
2024-03-13T06:40:53.092Z,8.90
2024-03-13T06:43:19.903Z,8.90
2024-03-13T06:45:50.727Z,8.90
2024-03-13T06:48:17.540Z,8.90
2024-03-13T06:50:44.674Z,8.90
2024-03-13T06:53:11.982Z,8.80
2024-03-13T06:55:39.096Z,8.80
2024-03-13T06:58:06.285Z,8.80
2024-03-13T07:00:34.483Z,8.80
2024-03-13T07:03:04.812Z,8.90
2024-03-13T07:05:33.271Z,8.80
2024-03-13T07:08:00.094Z,8.80
2024-03-13T07:10:26.915Z,8.90
2024-03-13T07:12:53.751Z,8.90
2024-03-13T07:15:20.513Z,8.90
2024-03-13T07:17:47.718Z,8.90
2024-03-13T07:20:15.357Z,8.90
2024-03-13T07:22:42.454Z,8.90
2024-03-13T07:25:11.538Z,8.90
2024-03-13T07:27:38.573Z,8.90
2024-03-13T07:30:07.952Z,9.00
2024-03-13T07:32:35.779Z,9.00
2024-03-13T07:35:05.106Z,9.00
2024-03-13T07:37:33.206Z,9.00
2024-03-13T07:40:00.502Z,9.00
2024-03-13T07:42:27.441Z,9.00
2024-03-13T07:44:55.734Z,9.00
2024-03-13T07:47:23.081Z,9.00
2024-03-13T07:49:50.410Z,9.00
2024-03-13T07:52:17.772Z,9.00
2024-03-13T07:54:44.674Z,9.00
2024-03-13T07:57:13.481Z,9.00
2024-03-13T07:59:42.125Z,9.00
2024-03-13T08:02:10.051Z,9.10
2024-03-13T08:04:39.834Z,9.10
2024-03-13T09:07:40.783Z,9.70
2024-03-13T09:10:07.820Z,9.70
2024-03-13T09:12:35.738Z,9.70
2024-03-13T09:15:02.740Z,9.70
2024-03-13T09:17:29.682Z,9.70
2024-03-13T09:19:56.504Z,9.80
2024-03-13T09:22:23.576Z,9.80
2024-03-13T09:24:52.107Z,9.90
2024-03-13T09:27:19.166Z,10.00
2024-03-13T09:29:46.178Z,10.00
2024-03-13T09:32:13.059Z,10.00
2024-03-13T09:34:41.110Z,10.00
2024-03-13T09:37:09.408Z,10.10
2024-03-13T09:39:37.421Z,10.10
2024-03-13T09:42:16.443Z,10.10
2024-03-13T09:44:45.580Z,10.20
2024-03-13T09:47:14.770Z,10.20
2024-03-13T09:49:45.721Z,10.20
2024-03-13T09:52:14.169Z,10.30
2024-03-13T09:54:44.362Z,10.30
2024-03-13T09:57:12.446Z,10.30
2024-03-13T09:59:42.832Z,10.30
2024-03-13T10:02:17.569Z,10.40
2024-03-13T10:04:45.448Z,10.40
2024-03-13T10:07:19.965Z,10.40
2024-03-13T10:09:48.658Z,10.40
2024-03-13T10:12:26.177Z,10.50
2024-03-13T10:14:54.495Z,10.50
2024-03-13T10:17:25.126Z,10.50
2024-03-13T10:19:55.366Z,10.60
2024-03-13T10:22:22.906Z,10.60
2024-03-13T10:24:52.986Z,10.60
2024-03-13T10:27:21.743Z,10.70
2024-03-13T10:29:50.036Z,10.70
2024-03-13T10:32:18.993Z,10.70
2024-03-13T10:34:47.776Z,10.70
2024-03-13T10:37:15.641Z,10.80
2024-03-13T10:39:43.419Z,10.80
2024-03-13T10:42:10.949Z,10.80
2024-03-13T10:44:38.392Z,10.80
2024-03-13T10:47:07.874Z,10.90
2024-03-13T10:49:34.818Z,10.90
2024-03-13T10:52:07.338Z,10.90
2024-03-13T10:54:35.736Z,11.00
2024-03-13T10:57:02.835Z,11.00
2024-03-13T10:59:30.475Z,11.00
2024-03-13T11:01:57.853Z,11.10
2024-03-13T11:04:27.952Z,11.10
2024-03-13T11:06:55.014Z,11.10
2024-03-13T11:09:25.087Z,11.20
2024-03-13T11:11:54.424Z,11.20
2024-03-13T11:14:21.941Z,11.30
2024-03-13T11:16:56.605Z,11.30
2024-03-13T11:19:30.237Z,11.30
2024-03-13T11:22:04.666Z,11.30
2024-03-13T11:24:33.125Z,11.30
2024-03-13T11:27:18.662Z,11.40
2024-03-13T11:29:50.855Z,11.40
2024-03-13T11:32:19.200Z,11.40
2024-03-13T11:34:46.230Z,11.40
2024-03-13T11:37:13.915Z,11.40
2024-03-13T11:39:42.492Z,11.40
2024-03-13T11:42:15.678Z,11.50
2024-03-13T11:44:46.383Z,11.50
2024-03-13T11:47:13.787Z,11.50
2024-03-13T11:49:42.571Z,11.60
2024-03-13T11:52:12.398Z,11.60
2024-03-13T11:54:44.545Z,11.60
2024-03-13T11:57:14.124Z,11.60
2024-03-13T11:59:56.089Z,11.60
2024-03-13T12:02:32.893Z,11.70
2024-03-13T12:05:05.814Z,11.70
2024-03-13T12:07:44.527Z,11.70
2024-03-13T12:10:19.043Z,11.70
2024-03-13T12:12:46.678Z,11.80
2024-03-13T12:15:19.385Z,11.80
2024-03-13T12:17:51.903Z,11.80
2024-03-13T12:20:20.871Z,11.90
2024-03-13T12:22:48.877Z,11.90
2024-03-13T12:25:15.719Z,11.90
2024-03-13T12:27:53.430Z,11.90
2024-03-13T12:30:22.027Z,12.00
2024-03-13T12:32:55.023Z,12.00
2024-03-13T12:35:22.315Z,12.00
2024-03-13T12:37:54.226Z,12.00
2024-03-13T12:40:22.397Z,12.00
2024-03-13T12:42:49.777Z,12.10
2024-03-13T12:45:17.761Z,12.10
2024-03-13T12:47:47.841Z,12.10
2024-03-13T12:50:19.239Z,12.10
2024-03-13T12:52:55.977Z,12.20
2024-03-13T12:55:23.109Z,12.20
2024-03-13T12:57:50.437Z,12.20
2024-03-13T13:00:21.700Z,12.20
2024-03-13T13:02:54.608Z,12.20
2024-03-13T13:05:22.387Z,12.20
2024-03-13T13:07:53.254Z,12.20
2024-03-13T13:10:27.756Z,12.20
2024-03-13T13:12:56.389Z,12.20
2024-03-13T13:15:24.410Z,12.30
2024-03-13T13:17:51.693Z,12.30
2024-03-13T13:20:24.410Z,12.40
2024-03-13T13:22:53.154Z,12.50
2024-03-13T13:25:21.914Z,12.50
2024-03-13T13:27:51.769Z,12.50
2024-03-13T13:30:19.710Z,12.50
2024-03-13T13:32:47.402Z,12.50
2024-03-13T13:35:15.632Z,12.60
2024-03-13T13:37:43.405Z,12.60
2024-03-13T13:40:14.497Z,12.60
2024-03-13T13:42:41.813Z,12.70
2024-03-13T13:45:11.398Z,12.70
2024-03-13T13:47:45.043Z,12.80
2024-03-13T13:50:17.138Z,12.80
2024-03-13T13:52:44.694Z,12.80
2024-03-13T13:55:13.979Z,12.80
2024-03-13T13:57:50.309Z,12.80
2024-03-13T14:00:20.643Z,12.80
2024-03-13T14:02:48.448Z,12.80
2024-03-13T14:05:18.430Z,12.80
2024-03-13T14:07:46.185Z,12.80
2024-03-13T14:10:13.971Z,12.70
2024-03-13T14:12:42.207Z,12.70
2024-03-13T14:15:12.709Z,12.70
2024-03-13T14:17:40.564Z,12.70
2024-03-13T14:20:14.628Z,12.70
2024-03-13T14:22:42.150Z,12.60
2024-03-13T14:25:09.249Z,12.70
2024-03-13T14:27:39.227Z,12.70
2024-03-13T14:30:06.735Z,12.70
2024-03-13T14:32:33.676Z,12.70
2024-03-13T14:37:32.984Z,12.70
2024-03-13T14:40:04.549Z,12.70
2024-03-13T14:42:35.954Z,12.70
2024-03-13T14:45:07.539Z,12.70
2024-03-13T14:47:34.796Z,12.60
2024-03-13T14:50:02.029Z,12.60
2024-03-13T14:52:29.233Z,12.60
2024-03-13T14:54:56.212Z,12.70
2024-03-13T14:57:23.606Z,12.70
2024-03-13T14:59:51.307Z,12.70
2024-03-13T15:02:20.186Z,12.70
2024-03-13T15:04:47.562Z,12.70
2024-03-13T15:07:15.900Z,12.70
2024-03-13T15:09:43.764Z,12.70
2024-03-13T15:12:14.999Z,12.70
2024-03-13T15:14:43.907Z,12.80
2024-03-13T15:17:11.436Z,12.80
2024-03-13T15:19:43.420Z,12.80
2024-03-13T15:22:10.909Z,12.80
2024-03-13T15:24:39.958Z,12.80
2024-03-13T15:27:08.247Z,12.80
2024-03-13T15:29:35.549Z,12.90
2024-03-13T15:32:02.390Z,12.90
2024-03-13T15:34:31.879Z,13.00
2024-03-13T15:36:58.965Z,13.00
2024-03-13T15:39:28.225Z,13.00
2024-03-13T15:41:55.630Z,13.00
2024-03-13T15:44:23.401Z,13.10
2024-03-13T15:46:50.516Z,13.10
2024-03-13T15:49:17.560Z,13.10
2024-03-13T15:51:44.381Z,13.10
2024-03-13T15:54:12.195Z,13.10
2024-03-13T15:56:39.265Z,13.10
2024-03-13T15:59:06.269Z,13.10
2024-03-13T16:01:34.391Z,13.10
2024-03-13T16:04:01.541Z,13.10
2024-03-13T16:06:29.849Z,13.10
2024-03-13T16:09:05.241Z,13.20
2024-03-13T16:11:32.550Z,13.10
2024-03-13T16:13:59.809Z,13.20
2024-03-13T16:16:27.552Z,13.20
2024-03-13T16:18:55.021Z,13.10
2024-03-13T16:21:22.470Z,13.10
2024-03-13T16:23:50.052Z,13.10
2024-03-13T16:26:18.186Z,13.10
2024-03-13T16:28:45.914Z,13.10
2024-03-13T16:31:18.250Z,13.20
2024-03-13T16:33:45.504Z,13.20
2024-03-13T16:36:12.353Z,13.20
2024-03-13T16:38:39.300Z,13.20
2024-03-13T16:41:06.154Z,13.20
2024-03-13T16:43:34.170Z,13.20
2024-03-13T16:46:01.164Z,13.20
2024-03-13T16:48:28.224Z,13.20
2024-03-13T16:51:00.348Z,13.20
2024-03-13T16:53:27.364Z,13.20
2024-03-13T16:55:54.556Z,13.20
2024-03-13T16:58:21.564Z,13.20
2024-03-13T17:00:48.749Z,13.20
2024-03-13T17:03:15.596Z,13.20
2024-03-13T17:05:42.571Z,13.20
2024-03-13T17:08:09.814Z,13.20
2024-03-13T17:10:36.792Z,13.20
2024-03-13T17:13:05.403Z,13.10
2024-03-13T17:15:32.479Z,13.20
2024-03-13T17:18:00.500Z,13.10
2024-03-13T17:20:28.450Z,13.10
2024-03-13T17:22:55.378Z,13.10
2024-03-13T17:25:24.853Z,13.10
2024-03-13T17:27:53.583Z,13.10
2024-03-13T17:30:21.875Z,13.10
2024-03-13T17:32:49.079Z,13.10
2024-03-13T17:35:16.394Z,13.10
2024-03-13T17:37:43.863Z,13.10
2024-03-13T17:40:15.209Z,13.10
2024-03-13T17:42:44.128Z,13.10
2024-03-13T17:45:12.688Z,13.00
2024-03-13T17:47:40.197Z,13.00
2024-03-13T17:50:10.494Z,13.00
2024-03-13T17:52:38.090Z,13.00
2024-03-13T17:55:07.303Z,13.00
2024-03-13T17:57:34.955Z,13.00
2024-03-13T18:00:02.853Z,13.00
2024-03-13T18:02:30.094Z,12.90
2024-03-13T18:04:56.921Z,12.90
2024-03-13T18:07:28.739Z,12.90
2024-03-13T18:09:56.531Z,12.90
2024-03-13T18:12:24.588Z,12.90
2024-03-13T18:14:54.078Z,12.90
2024-03-13T18:17:21.632Z,12.90
2024-03-13T18:19:49.269Z,12.90
2024-03-13T18:22:19.361Z,12.80
2024-03-13T18:24:46.525Z,12.80
2024-03-13T18:27:13.565Z,12.80
2024-03-13T18:29:43.250Z,12.80
2024-03-13T18:32:10.351Z,12.70
2024-03-13T18:34:39.469Z,12.70
2024-03-13T18:37:06.524Z,12.70
2024-03-13T18:39:33.493Z,12.70
2024-03-13T18:42:00.529Z,12.70
2024-03-13T18:44:27.885Z,12.60
2024-03-13T18:46:54.867Z,12.60
2024-03-13T18:49:21.681Z,12.60
2024-03-13T18:51:48.847Z,12.60
2024-03-13T18:54:16.219Z,12.60
2024-03-13T18:56:43.477Z,12.50
2024-03-13T18:59:11.554Z,12.50
2024-03-13T19:01:38.773Z,12.50
2024-03-13T19:04:05.792Z,12.50
2024-03-13T19:06:34.105Z,12.50
2024-03-13T19:09:01.846Z,12.50
2024-03-13T19:11:29.971Z,12.50
2024-03-13T19:13:57.107Z,12.40
2024-03-13T19:16:24.426Z,12.40
2024-03-13T19:18:54.141Z,12.40
2024-03-13T19:21:22.042Z,12.40
2024-03-13T19:23:49.168Z,12.40
2024-03-13T19:26:16.189Z,12.40
2024-03-13T19:28:43.149Z,12.40
2024-03-13T19:31:17.628Z,12.40
2024-03-13T19:33:48.029Z,12.40
2024-03-13T19:36:15.216Z,12.30
2024-03-13T19:38:42.517Z,12.30
2024-03-13T19:41:09.606Z,12.30
2024-03-13T19:43:38.207Z,12.30
2024-03-13T19:46:09.839Z,12.30
2024-03-13T19:48:37.285Z,12.30
2024-03-13T19:51:06.916Z,12.20
2024-03-13T19:53:36.387Z,12.20
2024-03-13T19:56:03.384Z,12.20
2024-03-13T19:58:30.195Z,12.20
2024-03-13T20:00:57.107Z,12.20
2024-03-13T20:03:25.130Z,12.20
2024-03-13T20:05:52.137Z,12.20
2024-03-13T20:08:19.021Z,12.20
2024-03-13T20:10:45.980Z,12.20
2024-03-13T20:13:13.009Z,12.20
2024-03-13T20:15:40.006Z,12.10
2024-03-13T20:18:07.194Z,12.10
2024-03-13T20:20:37.555Z,12.10
2024-03-13T20:23:06.832Z,12.10
2024-03-13T20:25:33.776Z,12.10
2024-03-13T20:28:00.819Z,12.10
2024-03-13T20:30:27.864Z,12.10
2024-03-13T20:32:56.804Z,12.10
2024-03-13T20:35:24.857Z,12.10
2024-03-13T20:37:51.832Z,12.10
2024-03-13T20:40:19.017Z,12.10
2024-03-13T20:42:45.877Z,12.10
2024-03-13T20:45:13.264Z,12.10
2024-03-13T20:47:40.448Z,12.10
2024-03-13T20:50:10.500Z,12.10
2024-03-13T20:52:39.320Z,12.10
2024-03-13T20:55:09.162Z,12.10
2024-03-13T20:57:38.618Z,12.10
2024-03-13T21:00:12.348Z,12.10
2024-03-13T21:02:41.175Z,12.10
2024-03-13T21:05:08.765Z,12.10
2024-03-13T21:07:36.258Z,12.10
2024-03-13T21:10:04.855Z,12.10
2024-03-13T21:12:32.257Z,12.10
2024-03-13T21:15:01.145Z,12.10
2024-03-13T21:17:30.473Z,12.10
2024-03-13T21:20:01.191Z,12.10
2024-03-13T21:22:30.106Z,12.10
2024-03-13T21:24:57.332Z,12.10
2024-03-13T21:27:24.248Z,12.10
2024-03-13T21:29:51.147Z,12.10
2024-03-13T21:32:18.669Z,12.10
2024-03-13T21:34:45.647Z,12.10
2024-03-13T21:37:12.558Z,12.10
2024-03-13T21:39:39.473Z,12.10
2024-03-13T21:42:06.493Z,12.10
2024-03-13T21:44:36.996Z,12.10
2024-03-13T21:47:04.335Z,12.10
2024-03-13T21:49:33.517Z,12.10
2024-03-13T21:52:00.890Z,12.10
2024-03-13T21:54:27.951Z,12.10
2024-03-13T21:56:55.032Z,12.10
2024-03-13T21:59:21.882Z,12.10
2024-03-13T22:01:48.678Z,12.10
2024-03-13T22:04:15.587Z,12.20
2024-03-13T22:06:42.536Z,12.20
2024-03-13T22:09:11.547Z,12.20
2024-03-13T22:11:39.541Z,12.20
2024-03-13T22:14:06.652Z,12.20
2024-03-13T22:16:33.566Z,12.20
2024-03-13T22:19:00.837Z,12.20
2024-03-13T22:21:28.781Z,12.20
2024-03-13T22:23:55.898Z,12.20
2024-03-13T22:26:23.799Z,12.10
2024-03-13T22:28:50.662Z,12.20
2024-03-13T22:31:17.494Z,12.10
2024-03-13T22:33:44.461Z,12.10
2024-03-13T22:36:16.180Z,12.10
2024-03-13T22:38:43.347Z,12.10
2024-03-13T22:41:10.215Z,12.10
2024-03-13T22:43:37.057Z,12.10
2024-03-13T22:46:06.713Z,12.10
2024-03-13T22:48:34.400Z,12.00
2024-03-13T22:51:01.443Z,12.00
2024-03-13T22:53:28.351Z,12.00
2024-03-13T22:55:56.122Z,12.00
2024-03-13T22:58:22.875Z,12.00
2024-03-13T23:00:58.974Z,12.00
2024-03-13T23:03:26.664Z,12.00
2024-03-13T23:05:53.611Z,12.00
2024-03-13T23:08:20.571Z,11.90
2024-03-13T23:10:48.304Z,11.90
2024-03-13T23:13:15.093Z,12.00
2024-03-13T23:15:41.965Z,11.90
2024-03-13T23:18:09.099Z,11.90
2024-03-13T23:20:38.954Z,11.90
2024-03-13T23:23:09.162Z,11.90
2024-03-13T23:25:36.777Z,11.90
2024-03-13T23:28:07.161Z,11.90
2024-03-13T23:30:34.191Z,11.90
2024-03-13T23:33:01.771Z,11.90
2024-03-13T23:35:28.845Z,11.90
2024-03-13T23:37:55.683Z,11.90
2024-03-13T23:40:22.724Z,11.90
2024-03-13T23:42:52.108Z,11.90
2024-03-13T23:45:18.990Z,11.90
2024-03-13T23:47:46.393Z,11.90
2024-03-13T23:50:14.113Z,11.90
2024-03-13T23:52:41.247Z,11.90
2024-03-13T23:55:08.243Z,11.90
2024-03-13T23:57:35.356Z,11.90
